createdAt,value
2018-12-13T00:04:42.656Z,47.70
2018-12-13T00:09:45.838Z,53.33
2018-12-13T00:14:48.993Z,49.47
2018-12-13T00:19:52.166Z,49.63
2018-12-13T00:24:55.331Z,61.63
2018-12-13T00:29:58.499Z,54.30
2018-12-13T00:35:01.645Z,57.67
2018-12-13T00:40:04.812Z,54.43
2018-12-13T00:45:07.964Z,58.53
2018-12-13T00:50:11.111Z,54.17
2018-12-13T00:55:14.275Z,53.10
2018-12-13T01:00:17.424Z,52.83
2018-12-13T01:10:30.195Z,58.07
2018-12-13T01:15:34.185Z,53.20
2018-12-13T01:20:37.392Z,53.87
2018-12-13T01:25:40.539Z,55.77
2018-12-13T01:30:43.716Z,58.30
2018-12-13T01:35:46.838Z,54.13
2018-12-13T01:40:49.930Z,58.63
2018-12-13T01:45:53.068Z,55.17
2018-12-13T01:50:56.243Z,59.90
2018-12-13T01:55:59.371Z,61.83
2018-12-13T02:01:02.521Z,54.03
2018-12-13T02:06:05.630Z,58.07
2018-12-13T02:11:08.767Z,57.23
2018-12-13T02:16:11.934Z,60.30
2018-12-13T02:21:15.075Z,59.90
2018-12-13T02:26:18.178Z,63.27
2018-12-13T02:31:21.299Z,62.43
2018-12-13T02:36:24.448Z,73.37
2018-12-13T02:41:27.556Z,61.17
2018-12-13T02:46:30.801Z,64.27
2018-12-13T02:51:34.067Z,69.17
2018-12-13T02:56:37.206Z,62.67
2018-12-13T03:01:40.337Z,67.37
2018-12-13T03:06:43.474Z,68.37
2018-12-13T03:11:46.626Z,68.17
2018-12-13T03:16:49.788Z,72.10
2018-12-13T03:21:52.935Z,71.33
2018-12-13T03:26:56.063Z,76.70
2018-12-13T03:31:59.205Z,74.03
2018-12-13T03:37:02.356Z,68.87
2018-12-13T03:42:05.819Z,74.80
2018-12-13T03:47:09.010Z,66.57
2018-12-13T03:52:12.162Z,66.50
2018-12-13T03:57:15.247Z,67.83
2018-12-13T04:02:18.384Z,64.80
2018-12-13T04:07:27.632Z,65.83
2018-12-13T04:12:26.673Z,63.13
2018-12-13T04:17:29.820Z,63.27
2018-12-13T04:22:32.953Z,69.63
2018-12-13T04:27:36.089Z,66.20
2018-12-13T04:32:39.242Z,65.30
2018-12-13T04:37:42.365Z,68.17
2018-12-13T04:42:45.513Z,69.60
2018-12-13T04:47:48.660Z,65.70
2018-12-13T04:52:51.802Z,71.10
2018-12-13T04:57:54.942Z,62.70
2018-12-13T05:02:58.105Z,71.63
2018-12-13T05:08:01.253Z,86.37
2018-12-13T05:13:04.404Z,70.03
2018-12-13T05:18:07.585Z,97.13
2018-12-13T05:23:10.708Z,67.37
2018-12-13T05:28:13.852Z,93.83
2018-12-13T05:33:17.000Z,65.53
2018-12-13T05:38:20.131Z,63.57
2018-12-13T05:43:23.276Z,65.40
2018-12-13T05:48:26.425Z,60.83
2018-12-13T05:53:29.588Z,68.53
2018-12-13T05:58:32.703Z,68.87
2018-12-13T06:03:35.835Z,73.20
2018-12-13T06:08:38.987Z,68.47
2018-12-13T06:13:42.165Z,66.23
2018-12-13T06:18:45.328Z,67.07
2018-12-13T06:23:48.556Z,66.23
2018-12-13T06:28:51.708Z,67.43
2018-12-13T06:33:54.890Z,63.87
2018-12-13T06:38:58.019Z,62.33
2018-12-13T06:44:01.243Z,62.50
2018-12-13T06:49:04.411Z,60.40
2018-12-13T06:54:07.563Z,62.53
2018-12-13T06:59:10.671Z,62.17
2018-12-13T07:04:13.827Z,67.77
2018-12-13T07:09:17.041Z,60.63
2018-12-13T07:14:20.207Z,63.07
2018-12-13T07:19:23.357Z,63.13
2018-12-13T07:24:26.518Z,62.83
2018-12-13T07:29:29.680Z,63.10
2018-12-13T07:34:32.817Z,64.60
2018-12-13T07:39:35.984Z,65.83
2018-12-13T07:44:39.157Z,63.47
2018-12-13T07:49:42.345Z,60.97
2018-12-13T07:54:45.511Z,65.80
2018-12-13T07:59:48.695Z,67.50
2018-12-13T08:04:51.908Z,62.97
2018-12-13T08:09:55.062Z,65.90
2018-12-13T08:14:58.178Z,69.10
2018-12-13T08:20:01.343Z,68.07
2018-12-13T08:25:04.714Z,69.03
2018-12-13T08:30:07.860Z,64.37
2018-12-13T08:35:11.178Z,63.90
2018-12-13T08:40:14.319Z,66.23
2018-12-13T08:45:17.455Z,70.97
2018-12-13T08:50:20.538Z,63.80
2018-12-13T08:55:23.687Z,65.87
2018-12-13T09:00:26.852Z,64.87
2018-12-13T09:05:30.054Z,60.17
2018-12-13T09:10:33.228Z,59.67
2018-12-13T09:15:36.369Z,64.67
2018-12-13T09:20:39.521Z,68.10
2018-12-13T09:25:42.653Z,61.33
2018-12-13T09:30:45.825Z,68.00
2018-12-13T09:35:48.965Z,79.03
2018-12-13T09:40:52.147Z,84.73
2018-12-13T09:45:55.352Z,82.53
2018-12-13T09:50:58.602Z,100.50
2018-12-13T09:56:01.754Z,99.60
2018-12-13T10:01:05.145Z,105.20
2018-12-13T10:06:08.462Z,87.57
2018-12-13T10:11:11.636Z,85.93
2018-12-13T10:16:14.866Z,87.00
2018-12-13T10:21:18.072Z,76.67
2018-12-13T10:26:21.687Z,76.53
2018-12-13T10:31:24.803Z,75.17
2018-12-13T10:36:28.010Z,71.63
2018-12-13T10:41:31.203Z,73.50
2018-12-13T10:46:34.388Z,71.13
2018-12-13T10:51:37.725Z,64.57
2018-12-13T10:56:40.860Z,69.33
2018-12-13T11:01:48.321Z,59.43
2018-12-13T11:06:51.446Z,61.50
2018-12-13T11:11:54.689Z,64.47
2018-12-13T11:16:57.900Z,67.70
2018-12-13T11:22:01.076Z,60.33
2018-12-13T11:27:16.516Z,58.70
2018-12-13T11:32:19.677Z,58.00
2018-12-13T11:37:22.791Z,59.10
2018-12-13T11:42:25.943Z,56.97
2018-12-13T11:47:29.169Z,56.80
2018-12-13T11:52:32.433Z,62.77
2018-12-13T11:57:35.621Z,52.67
2018-12-13T12:02:38.832Z,58.20
2018-12-13T12:07:42.109Z,54.23
2018-12-13T12:12:45.258Z,48.77
2018-12-13T12:17:48.355Z,45.97
2018-12-13T12:22:51.554Z,56.17
2018-12-13T12:27:54.765Z,57.07
2018-12-13T12:32:57.941Z,53.77
2018-12-13T12:38:01.012Z,50.80
2018-12-13T12:43:04.054Z,48.33
2018-12-13T12:48:07.259Z,47.73
2018-12-13T12:53:10.404Z,43.53
2018-12-13T12:58:13.607Z,48.43
2018-12-13T13:03:16.706Z,47.33
2018-12-13T13:08:19.892Z,49.20
2018-12-13T13:13:23.073Z,43.00
2018-12-13T13:18:26.240Z,39.83
2018-12-13T13:23:29.426Z,49.13
2018-12-13T13:28:32.627Z,44.03
2018-12-13T13:33:35.788Z,46.37
2018-12-13T13:38:39.142Z,47.37
2018-12-13T13:43:42.280Z,43.07
2018-12-13T13:48:45.468Z,39.87
2018-12-13T13:53:48.692Z,41.97
2018-12-13T13:58:51.845Z,42.57
2018-12-13T14:03:55.101Z,47.13
2018-12-13T14:08:58.321Z,43.67
2018-12-13T14:14:02.024Z,47.73
2018-12-13T14:19:05.274Z,41.20
2018-12-13T14:24:08.381Z,42.60
2018-12-13T14:29:12.112Z,50.53
2018-12-13T14:34:18.382Z,55.03
2018-12-13T14:39:21.452Z,45.13
2018-12-13T14:44:24.714Z,44.33
2018-12-13T14:49:27.783Z,46.27
2018-12-13T14:54:30.932Z,43.93
2018-12-13T14:59:34.094Z,45.53
2018-12-13T15:04:37.221Z,47.03
2018-12-13T15:09:40.666Z,49.27
2018-12-13T15:14:43.878Z,49.53
2018-12-13T15:19:47.012Z,50.63
2018-12-13T15:24:50.257Z,50.63
2018-12-13T15:29:53.423Z,61.20
2018-12-13T15:34:56.637Z,53.23
2018-12-13T15:39:59.748Z,54.73
2018-12-13T15:45:02.895Z,51.47
2018-12-13T15:50:06.801Z,55.30
2018-12-13T15:55:09.977Z,58.60
2018-12-13T16:00:13.176Z,60.17
2018-12-13T16:05:16.295Z,61.13
2018-12-13T16:10:19.460Z,57.00
2018-12-13T16:15:22.616Z,59.03
2018-12-13T16:20:25.738Z,54.80
2018-12-13T16:25:28.853Z,61.87
2018-12-13T16:30:32.007Z,60.80
2018-12-13T16:35:35.170Z,62.07
2018-12-13T16:40:38.289Z,66.37
2018-12-13T16:45:41.472Z,65.40
2018-12-13T16:50:44.623Z,58.43
2018-12-13T16:55:47.903Z,57.73
2018-12-13T17:00:51.076Z,63.03
2018-12-13T17:05:54.263Z,58.30
2018-12-13T17:10:57.534Z,59.80
2018-12-13T17:16:00.768Z,63.33
2018-12-13T17:21:04.480Z,62.63
2018-12-13T17:26:07.611Z,61.67
2018-12-13T17:31:10.806Z,57.90
2018-12-13T17:36:13.949Z,58.40
2018-12-13T17:41:17.087Z,61.73
2018-12-13T17:46:20.327Z,61.83
2018-12-13T17:51:23.536Z,59.73
2018-12-13T17:56:26.835Z,61.07
2018-12-13T18:01:29.979Z,60.47
2018-12-13T18:06:33.144Z,67.43
2018-12-13T18:11:36.319Z,57.47
2018-12-13T18:16:43.414Z,61.77
2018-12-13T18:21:44.650Z,56.03
2018-12-13T18:26:47.909Z,63.47
2018-12-13T18:31:51.035Z,64.77
2018-12-13T18:36:54.202Z,60.07
2018-12-13T18:41:57.484Z,63.90
2018-12-13T18:47:00.619Z,55.17
2018-12-13T18:52:03.750Z,63.67
2018-12-13T18:57:06.887Z,63.43
2018-12-13T19:02:10.060Z,62.70
2018-12-13T19:07:14.046Z,65.07
2018-12-13T19:12:17.191Z,64.70
2018-12-13T19:17:20.344Z,55.33
2018-12-13T19:22:23.451Z,63.67
2018-12-13T19:27:30.082Z,55.20
2018-12-13T19:32:33.436Z,61.40
2018-12-13T19:37:36.776Z,53.00
2018-12-13T19:42:40.019Z,60.33
2018-12-13T19:52:54.503Z,45.83
2018-12-13T19:57:57.878Z,52.57
2018-12-13T20:03:08.874Z,51.53
2018-12-13T20:08:12.275Z,50.93
2018-12-13T20:13:15.591Z,46.97
2018-12-13T20:18:23.990Z,48.50
2018-12-13T20:23:30.519Z,53.80
2018-12-13T20:34:35.693Z,44.67
2018-12-13T20:39:41.431Z,40.47
2018-12-13T20:44:44.776Z,48.10
2018-12-13T20:49:48.136Z,43.47
2018-12-13T20:54:51.546Z,46.87
2018-12-13T20:59:54.943Z,45.77
2018-12-13T21:05:00.259Z,50.47
2018-12-13T21:10:07.609Z,46.47
2018-12-13T21:20:54.208Z,42.53
2018-12-13T21:26:06.461Z,50.50
2018-12-13T21:31:18.932Z,47.77
2018-12-13T21:36:26.467Z,46.03
2018-12-13T21:41:31.938Z,48.13
2018-12-13T21:46:35.351Z,46.83
2018-12-13T21:51:38.654Z,44.87
2018-12-13T21:56:42.483Z,50.73
2018-12-13T22:01:45.715Z,49.03
2018-12-13T22:06:48.957Z,53.13
2018-12-13T22:11:52.111Z,47.13
2018-12-13T22:16:56.313Z,47.70
2018-12-13T22:21:59.680Z,52.43
2018-12-13T22:27:02.922Z,51.03
2018-12-13T22:32:06.556Z,49.77
2018-12-13T22:37:09.860Z,51.43
2018-12-13T22:42:13.052Z,54.57
2018-12-13T22:47:16.212Z,58.30
2018-12-13T22:52:19.380Z,53.03
2018-12-13T22:57:22.572Z,53.50
2018-12-13T23:02:25.681Z,52.40
2018-12-13T23:07:28.871Z,51.57
2018-12-13T23:12:32.023Z,59.73
2018-12-13T23:17:35.146Z,55.40
2018-12-13T23:22:38.311Z,50.03
2018-12-13T23:27:41.491Z,48.50
2018-12-13T23:32:44.651Z,55.97
2018-12-13T23:37:47.821Z,54.40
2018-12-13T23:42:50.949Z,47.13
2018-12-13T23:47:54.115Z,55.10
2018-12-13T23:52:57.299Z,54.13
2018-12-13T23:58:00.475Z,52.33
